createdAt,value
2023-06-19T05:01:02.808Z,1104.00
2023-06-19T05:02:02.716Z,1112.00
2023-06-19T05:03:02.743Z,1104.00
2023-06-19T05:04:02.700Z,1124.00
2023-06-19T05:05:02.677Z,1180.00
2023-06-19T05:06:02.690Z,1200.00
2023-06-19T05:07:02.666Z,1228.00
2023-06-19T05:08:02.669Z,1288.00
2023-06-19T05:09:02.640Z,1256.00
2023-06-19T05:10:02.624Z,1240.00
2023-06-19T05:11:02.666Z,1240.00
2023-06-19T05:12:07.634Z,1236.00
2023-06-19T05:13:02.589Z,1268.00
2023-06-19T05:14:02.592Z,1328.00
2023-06-19T05:15:02.590Z,1428.00
2023-06-19T05:16:02.598Z,1476.00
2023-06-19T05:17:02.623Z,1488.00
2023-06-19T05:18:02.579Z,1528.00
2023-06-19T05:19:02.545Z,1516.00
2023-06-19T05:20:02.519Z,1548.00
2023-06-19T05:21:02.516Z,1552.00
2023-06-19T05:22:02.500Z,1556.00
2023-06-19T05:23:07.498Z,1556.00
2023-06-19T05:24:02.484Z,1540.00
2023-06-19T05:25:02.502Z,1524.00
2023-06-19T05:26:02.535Z,1500.00
2023-06-19T05:27:02.434Z,1520.00
2023-06-19T05:28:04.953Z,1536.00
2023-06-19T05:29:02.411Z,1560.00
2023-06-19T05:30:02.422Z,1564.00
2023-06-19T05:31:02.404Z,1548.00
2023-06-19T05:32:02.444Z,1652.00
2023-06-19T05:33:02.468Z,1808.00
2023-06-19T05:34:07.395Z,1892.00
2023-06-19T05:35:02.380Z,2004.00
2023-06-19T05:36:02.344Z,2096.00
2023-06-19T05:37:02.323Z,1924.00
2023-06-19T05:38:02.365Z,1836.00
2023-06-19T05:39:02.312Z,1656.00
2023-06-19T05:40:02.345Z,1600.00
2023-06-19T05:41:02.283Z,1588.00
2023-06-19T05:42:02.271Z,1628.00
2023-06-19T05:43:02.257Z,1676.00
2023-06-19T05:44:02.280Z,1700.00
2023-06-19T05:45:07.332Z,1708.00
2023-06-19T05:46:02.274Z,1812.00
2023-06-19T05:47:02.216Z,2120.00
2023-06-19T05:48:02.272Z,2200.00
2023-06-19T05:49:02.228Z,2304.00
2023-06-19T05:50:02.201Z,2564.00
2023-06-19T05:51:02.216Z,2560.00
2023-06-19T05:52:02.232Z,2652.00
2023-06-19T05:53:02.150Z,2656.00
2023-06-19T05:54:02.165Z,2640.00
2023-06-19T05:55:02.182Z,2544.00
2023-06-19T05:56:07.136Z,2420.00
2023-06-19T05:57:02.110Z,2492.00
2023-06-19T05:58:02.153Z,2536.00
2023-06-19T05:59:02.099Z,2480.00
2023-06-19T06:00:02.085Z,2416.00
2023-06-19T06:01:02.093Z,2480.00
2023-06-19T06:02:02.055Z,2440.00
2023-06-19T06:03:02.077Z,2232.00
2023-06-19T06:04:02.128Z,2132.00
2023-06-19T06:05:02.165Z,2032.00
2023-06-19T06:06:02.029Z,2124.00
2023-06-19T06:07:07.023Z,2092.00
2023-06-19T06:08:01.994Z,2140.00
2023-06-19T06:09:01.974Z,2164.00
2023-06-19T06:10:01.969Z,2308.00
2023-06-19T06:11:01.978Z,2320.00
2023-06-19T06:12:01.992Z,2232.00
2023-06-19T06:13:01.940Z,2196.00
2023-06-19T06:14:01.932Z,2040.00
2023-06-19T06:15:01.908Z,1916.00
2023-06-19T06:16:01.897Z,2008.00
2023-06-19T06:17:02.010Z,2080.00
2023-06-19T06:18:06.984Z,1988.00
2023-06-19T06:19:01.869Z,2008.00
2023-06-19T06:20:01.852Z,2028.00
2023-06-19T06:21:01.882Z,2076.00
2023-06-19T06:22:01.859Z,2448.00
2023-06-19T06:23:01.842Z,2332.00
2023-06-19T06:24:01.826Z,2292.00
2023-06-19T06:25:01.888Z,2312.00
2023-06-19T06:26:01.785Z,2620.00
2023-06-19T06:27:01.784Z,2908.00
2023-06-19T06:28:01.770Z,2980.00
2023-06-19T06:29:06.773Z,3168.00
2023-06-19T06:30:01.773Z,3708.00
2023-06-19T06:31:01.756Z,4204.00
2023-06-19T06:32:01.814Z,4640.00
2023-06-19T06:33:01.757Z,4528.00
2023-06-19T06:34:01.705Z,4800.00
2023-06-19T06:35:01.683Z,6192.00
2023-06-19T06:36:01.680Z,6824.00
2023-06-19T06:37:06.414Z,5468.00
2023-06-19T06:38:02.762Z,4464.00
2023-06-19T06:39:01.653Z,4516.00
2023-06-19T06:40:06.713Z,5308.00
2023-06-19T06:41:01.627Z,5900.00
2023-06-19T06:42:01.626Z,6364.00
2023-06-19T06:43:01.595Z,6516.00
2023-06-19T06:44:01.672Z,5400.00
2023-06-19T06:45:01.570Z,5508.00
2023-06-19T06:46:01.601Z,4116.00
2023-06-19T06:47:01.561Z,3520.00
2023-06-19T06:48:01.613Z,3524.00
2023-06-19T06:49:01.531Z,3832.00
2023-06-19T06:50:01.569Z,3708.00
2023-06-19T06:51:06.557Z,3988.00
2023-06-19T06:52:01.499Z,3892.00
2023-06-19T06:53:01.606Z,3532.00
2023-06-19T06:54:01.478Z,3408.00
2023-06-19T06:55:01.478Z,3280.00
2023-06-19T06:56:01.460Z,3024.00
2023-06-19T06:57:01.487Z,3052.00
2023-06-19T06:58:01.501Z,2880.00
2023-06-19T06:59:01.415Z,2764.00
2023-06-19T07:00:01.426Z,2780.00
2023-06-19T07:01:01.432Z,2872.00
2023-06-19T07:02:06.485Z,2940.00
2023-06-19T07:03:01.494Z,3036.00
2023-06-19T07:04:01.392Z,3024.00
2023-06-19T07:05:01.378Z,3004.00
2023-06-19T07:06:01.377Z,3156.00
2023-06-19T07:07:01.332Z,3276.00
2023-06-19T07:08:01.325Z,3232.00
2023-06-19T07:09:01.345Z,3196.00
2023-06-19T07:10:01.371Z,3260.00
2023-06-19T07:11:01.290Z,3372.00
2023-06-19T07:12:01.281Z,3676.00
2023-06-19T07:13:06.289Z,4096.00
2023-06-19T07:14:01.269Z,3620.00
2023-06-19T07:15:01.255Z,3884.00
2023-06-19T07:16:01.257Z,4308.00
2023-06-19T07:17:01.333Z,5308.00
2023-06-19T07:18:01.318Z,5756.00
2023-06-19T07:19:01.213Z,4968.00
2023-06-19T07:20:01.192Z,4668.00
2023-06-19T07:21:01.183Z,4296.00
2023-06-19T07:22:01.192Z,4388.00
2023-06-19T07:23:01.215Z,4088.00
2023-06-19T07:24:06.241Z,3892.00
2023-06-19T07:25:01.146Z,3296.00
2023-06-19T07:26:01.134Z,3380.00
2023-06-19T07:27:01.118Z,3416.00
2023-06-19T07:28:01.122Z,3688.00
2023-06-19T07:29:01.120Z,4076.00
2023-06-19T07:30:01.098Z,4024.00
2023-06-19T07:31:01.073Z,3952.00
2023-06-19T07:32:01.078Z,4368.00
2023-06-19T07:33:01.135Z,4500.00
2023-06-19T07:34:01.046Z,4612.00
2023-06-19T07:35:06.102Z,5380.00
2023-06-19T07:36:01.017Z,4992.00
2023-06-19T07:37:01.021Z,5160.00
2023-06-19T07:38:01.007Z,4888.00
2023-06-19T07:39:00.994Z,4420.00
2023-06-19T07:40:01.061Z,4480.00
2023-06-19T07:41:01.002Z,4668.00
2023-06-19T07:42:00.970Z,5040.00
2023-06-19T07:43:00.940Z,4576.00
2023-06-19T07:44:00.945Z,5240.00
2023-06-19T07:45:00.920Z,5480.00
2023-06-19T07:46:05.952Z,5332.00
2023-06-19T07:47:00.980Z,4836.00
2023-06-19T07:48:00.950Z,3780.00
2023-06-19T07:49:00.897Z,3088.00
2023-06-19T07:50:00.874Z,2836.00
2023-06-19T07:51:00.869Z,2780.00
2023-06-19T07:52:00.861Z,3032.00
2023-06-19T07:53:00.880Z,2628.00
2023-06-19T07:54:00.828Z,2380.00
2023-06-19T07:55:00.819Z,2296.00
2023-06-19T07:56:00.833Z,2284.00
2023-06-19T07:57:05.815Z,2220.00
2023-06-19T07:58:00.793Z,1816.00
2023-06-19T07:59:00.815Z,1652.00
2023-06-19T08:00:00.786Z,1596.00
2023-06-19T08:01:00.752Z,1628.00
2023-06-19T08:02:00.757Z,1460.00
2023-06-19T08:03:00.830Z,1352.00
2023-06-19T08:04:00.759Z,1616.00
2023-06-19T08:05:00.767Z,1820.00
2023-06-19T08:06:00.762Z,1756.00
2023-06-19T08:07:00.717Z,1800.00
2023-06-19T08:08:05.708Z,2096.00
2023-06-19T08:09:00.659Z,2544.00
2023-06-19T08:10:12.373Z,2448.00
2023-06-19T08:11:00.635Z,2372.00
2023-06-19T08:12:00.734Z,2808.00
2023-06-19T08:13:00.643Z,3344.00
2023-06-19T08:14:00.612Z,3904.00
2023-06-19T08:15:00.598Z,2900.00
2023-06-19T08:16:00.582Z,2692.00
2023-06-19T08:17:00.625Z,2256.00
2023-06-19T08:18:00.607Z,2104.00
2023-06-19T08:19:05.586Z,2556.00
2023-06-19T08:20:00.580Z,2808.00
2023-06-19T08:21:00.518Z,3200.00
2023-06-19T08:22:00.533Z,3192.00
2023-06-19T08:23:00.534Z,3320.00
2023-06-19T08:24:00.528Z,4608.00
2023-06-19T08:25:00.476Z,4848.00
2023-06-19T08:26:00.515Z,4828.00
2023-06-19T08:27:00.461Z,6012.00
2023-06-19T08:28:00.472Z,5272.00
2023-06-19T08:29:00.454Z,5512.00
2023-06-19T08:30:05.441Z,5520.00
2023-06-19T08:31:00.411Z,4832.00
2023-06-19T08:32:00.448Z,8572.00
2023-06-19T08:33:00.489Z,7056.00
2023-06-19T08:34:00.391Z,12752.00
2023-06-19T08:35:00.378Z,7032.00
2023-06-19T08:36:00.362Z,6348.00
2023-06-19T08:37:00.346Z,5020.00
2023-06-19T08:38:00.347Z,5828.00
2023-06-19T08:39:00.374Z,5564.00
2023-06-19T08:40:00.310Z,6340.00
2023-06-19T08:41:05.336Z,5492.00
2023-06-19T08:42:00.292Z,6548.00
2023-06-19T08:43:00.285Z,6172.00
2023-06-19T08:44:00.289Z,7680.00
2023-06-19T08:45:00.306Z,7640.00
2023-06-19T08:46:00.327Z,7864.00
2023-06-19T08:47:00.237Z,24160.00
2023-06-19T08:48:00.340Z,9112.00
2023-06-19T08:49:00.213Z,12708.00
2023-06-19T08:50:02.372Z,26880.00
2023-06-19T08:51:00.210Z,49536.00
2023-06-19T08:52:05.215Z,38016.00
2023-06-19T08:53:00.262Z,16288.00
2023-06-19T08:54:00.174Z,10360.00
2023-06-19T08:55:00.189Z,14120.00
2023-06-19T08:56:00.158Z,16992.00
2023-06-19T08:57:00.180Z,14096.00
2023-06-19T08:58:00.129Z,6684.00
2023-06-19T08:59:00.171Z,5348.00
2023-06-19T09:00:00.342Z,5512.00
2023-06-19T09:01:00.124Z,6020.00
2023-06-19T09:02:00.154Z,6856.00
2023-06-19T09:03:14.324Z,6992.00
2023-06-19T09:04:00.210Z,6708.00
2023-06-19T09:05:00.041Z,6716.00
2023-06-19T09:06:00.142Z,7208.00
2023-06-19T09:07:00.205Z,7472.00
2023-06-19T09:08:00.108Z,7664.00
2023-06-19T09:09:00.008Z,7628.00
2023-06-19T09:09:59.992Z,8696.00
2023-06-19T09:10:59.984Z,8244.00
2023-06-19T09:11:59.988Z,9800.00
2023-06-19T09:12:59.981Z,8004.00
2023-06-19T09:14:05.028Z,7624.00
2023-06-19T09:14:59.975Z,5188.00
2023-06-19T09:16:00.071Z,7272.00
2023-06-19T09:16:59.942Z,9376.00
2023-06-19T09:17:59.985Z,6740.00
2023-06-19T09:18:59.898Z,6552.00
2023-06-19T09:19:59.900Z,6880.00
2023-06-19T09:20:59.948Z,6836.00
2023-06-19T09:21:59.857Z,6376.00
2023-06-19T09:22:59.850Z,6772.00
2023-06-19T09:23:59.850Z,7244.00
2023-06-19T09:25:04.865Z,7072.00
2023-06-19T09:25:59.900Z,6484.00
2023-06-19T09:26:59.803Z,7036.00
2023-06-19T09:27:59.797Z,7104.00
2023-06-19T09:28:59.786Z,7828.00
2023-06-19T09:29:59.788Z,9788.00
2023-06-19T09:30:59.767Z,7924.00
2023-06-19T09:31:59.793Z,7916.00
2023-06-19T09:32:59.804Z,9988.00
2023-06-19T09:33:59.850Z,17632.00
2023-06-19T09:35:00.007Z,9860.00
2023-06-19T09:36:04.885Z,8672.00
2023-06-19T09:36:59.701Z,31360.00
2023-06-19T09:37:59.728Z,42496.00
2023-06-19T09:38:59.851Z,47168.00
2023-06-19T09:39:59.681Z,6704.00
2023-06-19T09:40:59.656Z,5396.00
2023-06-19T09:41:59.657Z,5808.00
2023-06-19T09:42:59.630Z,6332.00
2023-06-19T09:43:59.638Z,6040.00
2023-06-19T09:44:59.645Z,5952.00
2023-06-19T09:45:59.606Z,17248.00
2023-06-19T09:47:04.689Z,28160.00
2023-06-19T09:47:59.705Z,54688.00
2023-06-19T09:48:59.598Z,8212.00
2023-06-19T09:49:59.554Z,6036.00
2023-06-19T09:50:59.548Z,6536.00
2023-06-19T09:51:59.538Z,7896.00
2023-06-19T09:52:59.518Z,8180.00
2023-06-19T09:53:59.573Z,10916.00
2023-06-19T09:54:59.526Z,8136.00
2023-06-19T09:55:59.507Z,7608.00
2023-06-19T09:56:59.485Z,5248.00
2023-06-19T09:57:59.490Z,5348.00
2023-06-19T09:58:59.471Z,7036.00
2023-06-19T10:00:04.562Z,6576.00
2023-06-19T10:00:59.450Z,6424.00
2023-06-19T10:01:59.479Z,6260.00
2023-06-19T10:02:59.562Z,6660.00
2023-06-19T10:03:59.402Z,7200.00
2023-06-19T10:04:59.389Z,7548.00
2023-06-19T10:05:59.431Z,7532.00
2023-06-19T10:06:59.367Z,7972.00
2023-06-19T10:07:59.366Z,8180.00
2023-06-19T10:08:59.343Z,7740.00
2023-06-19T10:09:59.334Z,8008.00
2023-06-19T10:10:59.329Z,8152.00
2023-06-19T10:11:59.370Z,8348.00
2023-06-19T10:13:04.332Z,8204.00
2023-06-19T10:13:59.294Z,9792.00
2023-06-19T10:14:59.280Z,8140.00
2023-06-19T10:15:59.292Z,7648.00
2023-06-19T10:16:59.296Z,8120.00
2023-06-19T10:17:59.361Z,7876.00
2023-06-19T10:18:59.287Z,7908.00
2023-06-19T10:19:59.234Z,10668.00
2023-06-19T10:20:59.339Z,7384.00
2023-06-19T10:22:01.397Z,9460.00
2023-06-19T10:22:59.192Z,9056.00
2023-06-19T10:24:04.309Z,7980.00
2023-06-19T10:24:59.184Z,7728.00
2023-06-19T10:25:59.172Z,7816.00
2023-06-19T10:26:59.167Z,7548.00
2023-06-19T10:27:59.133Z,7172.00
2023-06-19T10:28:59.128Z,7136.00
2023-06-19T10:30:10.119Z,7172.00
2023-06-19T10:30:59.173Z,7032.00
2023-06-19T10:31:59.102Z,6936.00
2023-06-19T10:32:59.113Z,7404.00
2023-06-19T10:33:59.073Z,7908.00
2023-06-19T10:35:04.102Z,8904.00
2023-06-19T10:35:59.105Z,8804.00
2023-06-19T10:36:59.058Z,9480.00
2023-06-19T10:37:59.034Z,11428.00
2023-06-19T10:38:59.019Z,11960.00
2023-06-19T10:39:59.004Z,17664.00
2023-06-19T10:40:59.029Z,17792.00
2023-06-19T10:41:59.037Z,9764.00
2023-06-19T10:42:58.972Z,10232.00
2023-06-19T10:43:58.995Z,8988.00
2023-06-19T10:44:58.960Z,9076.00
2023-06-19T10:46:04.040Z,8772.00
2023-06-19T10:46:58.967Z,9256.00
2023-06-19T10:47:59.014Z,10488.00
2023-06-19T10:48:58.915Z,9044.00
2023-06-19T10:49:58.911Z,9988.00
2023-06-19T10:50:58.926Z,31776.00
2023-06-19T10:51:58.879Z,24480.00
2023-06-19T10:52:58.871Z,20352.00
2023-06-19T10:53:58.903Z,13020.00
2023-06-19T10:54:58.856Z,11768.00
2023-06-19T10:55:58.832Z,9280.00
2023-06-19T10:56:58.832Z,8864.00
2023-06-19T10:57:58.813Z,8868.00
2023-06-19T10:59:03.867Z,8900.00
2023-06-19T10:59:58.861Z,8932.00
2023-06-19T11:00:58.898Z,9468.00
2023-06-19T11:01:58.783Z,13584.00
2023-06-19T11:02:59.045Z,19296.00
2023-06-19T11:03:58.759Z,12808.00
2023-06-19T11:04:58.741Z,14208.00
2023-06-19T11:05:58.721Z,34720.00
2023-06-19T11:06:58.814Z,27360.00
2023-06-19T11:07:58.721Z,31584.00
2023-06-19T11:08:58.702Z,15220.00
2023-06-19T11:09:58.691Z,17056.00
2023-06-19T11:10:58.683Z,23744.00
2023-06-19T11:12:03.679Z,11196.00
2023-06-19T11:12:58.688Z,11900.00
2023-06-19T11:13:58.813Z,15104.00
2023-06-19T11:14:58.663Z,15392.00
2023-06-19T11:15:58.681Z,29248.00
2023-06-19T11:16:58.643Z,30592.00
2023-06-19T11:17:58.635Z,23008.00
2023-06-19T11:18:58.587Z,24192.00
2023-06-19T11:19:58.662Z,65728.00
2023-06-19T11:20:59.930Z,57760.00
2023-06-19T11:21:58.590Z,58496.00
2023-06-19T11:22:58.589Z,50592.00
2023-06-19T11:23:58.579Z,59520.00
2023-06-19T11:25:03.549Z,59520.00
2023-06-19T11:25:58.533Z,66208.00
2023-06-19T11:26:58.607Z,64768.00
2023-06-19T11:27:58.498Z,61024.00
2023-06-19T11:28:58.478Z,57216.00
2023-06-19T11:29:58.466Z,45440.00
2023-06-19T11:30:58.488Z,42080.00
2023-06-19T11:31:58.457Z,46720.00
2023-06-19T11:32:58.576Z,48320.00
2023-06-19T11:33:58.430Z,62880.00
2023-06-19T11:34:58.432Z,63648.00
2023-06-19T11:35:58.406Z,65664.00
2023-06-19T11:36:58.403Z,54496.00
2023-06-19T11:38:03.452Z,48672.00
2023-06-19T11:38:58.528Z,42432.00
2023-06-19T11:39:58.360Z,48576.00
2023-06-19T11:40:58.387Z,51776.00
2023-06-19T11:41:58.359Z,57184.00
2023-06-19T11:42:58.345Z,64896.00
2023-06-19T11:43:58.318Z,66048.00
2023-06-19T11:44:58.451Z,70272.00
2023-06-19T11:45:58.361Z,70272.00
2023-06-19T11:46:58.311Z,72736.00
2023-06-19T11:47:58.418Z,71008.00
2023-06-19T11:49:07.308Z,73280.00
2023-06-19T11:49:58.261Z,70912.00
2023-06-19T11:50:58.390Z,74560.00
2023-06-19T11:51:58.246Z,59072.00
2023-06-19T11:52:58.257Z,33568.00
2023-06-19T11:53:58.257Z,41440.00
2023-06-19T11:54:58.218Z,48416.00
2023-06-19T11:55:58.231Z,43264.00
2023-06-19T11:56:58.268Z,26432.00
2023-06-19T11:57:58.182Z,30208.00
2023-06-19T11:58:58.177Z,31360.00
2023-06-19T12:00:03.195Z,38272.00
2023-06-19T12:00:58.175Z,32512.00
2023-06-19T12:01:58.192Z,28128.00
2023-06-19T12:02:58.362Z,28864.00
2023-06-19T12:03:58.179Z,27840.00
2023-06-19T12:04:58.123Z,27744.00
2023-06-19T12:05:58.108Z,30688.00
2023-06-19T12:06:58.113Z,28736.00
2023-06-19T12:07:58.087Z,22432.00
2023-06-19T12:08:58.167Z,19840.00
2023-06-19T12:09:58.095Z,18144.00
2023-06-19T12:11:03.074Z,16480.00
2023-06-19T12:11:58.038Z,12244.00
2023-06-19T12:12:58.030Z,9400.00
2023-06-19T12:13:58.025Z,5748.00
2023-06-19T12:14:58.103Z,5060.00
2023-06-19T12:15:57.998Z,4996.00
2023-06-19T12:16:58.028Z,6060.00
2023-06-19T12:17:58.003Z,5548.00
2023-06-19T12:18:58.089Z,5748.00
2023-06-19T12:19:57.956Z,5668.00
2023-06-19T12:20:57.994Z,5612.00
2023-06-19T12:22:02.983Z,5928.00
2023-06-19T12:22:57.951Z,6704.00
2023-06-19T12:23:57.971Z,6828.00
2023-06-19T12:24:57.910Z,7520.00
2023-06-19T12:25:57.916Z,7804.00
2023-06-19T12:26:57.938Z,8064.00
2023-06-19T12:27:57.881Z,8108.00
2023-06-19T12:28:57.866Z,8204.00
2023-06-19T12:29:57.846Z,8292.00
2023-06-19T12:30:57.920Z,8152.00
2023-06-19T12:31:57.829Z,8260.00
2023-06-19T12:32:57.924Z,8272.00
2023-06-19T12:34:00.229Z,8352.00
2023-06-19T12:35:02.815Z,8604.00
2023-06-19T12:35:57.799Z,8932.00
2023-06-19T12:36:57.820Z,9100.00
2023-06-19T12:37:57.790Z,9044.00
2023-06-19T12:38:57.759Z,8588.00
2023-06-19T12:39:57.825Z,8244.00
2023-06-19T12:40:57.739Z,8084.00
2023-06-19T12:41:57.800Z,7636.00
2023-06-19T12:42:57.728Z,7424.00
2023-06-19T12:43:57.704Z,7348.00
2023-06-19T12:44:57.679Z,7280.00
2023-06-19T12:45:57.824Z,7332.00
2023-06-19T12:46:57.674Z,7600.00
2023-06-19T12:48:02.687Z,7868.00
2023-06-19T12:48:57.663Z,7908.00
2023-06-19T12:49:57.651Z,7748.00
2023-06-19T12:50:57.619Z,7840.00
2023-06-19T12:51:57.711Z,7756.00
2023-06-19T12:52:57.593Z,7620.00
2023-06-19T12:53:57.588Z,6976.00
2023-06-19T12:54:57.578Z,6812.00
2023-06-19T12:56:02.206Z,6676.00
2023-06-19T12:56:57.570Z,6852.00
2023-06-19T12:57:57.627Z,7120.00
2023-06-19T12:58:57.529Z,7324.00
2023-06-19T12:59:57.519Z,7244.00
2023-06-19T13:01:02.548Z,6896.00
2023-06-19T13:01:57.534Z,6756.00
2023-06-19T13:02:57.606Z,6684.00
2023-06-19T13:03:57.644Z,6676.00
2023-06-19T13:04:57.471Z,6912.00
2023-06-19T13:05:57.466Z,7076.00
2023-06-19T13:06:57.458Z,7172.00
2023-06-19T13:07:57.478Z,7256.00
2023-06-19T13:08:57.430Z,7232.00
2023-06-19T13:09:57.494Z,7380.00
2023-06-19T13:10:57.490Z,7420.00
2023-06-19T13:11:57.482Z,7200.00
2023-06-19T13:12:57.484Z,6924.00
2023-06-19T13:14:02.425Z,6084.00
2023-06-19T13:14:57.395Z,5660.00
2023-06-19T13:15:57.534Z,5232.00
2023-06-19T13:16:57.438Z,4676.00
2023-06-19T13:17:57.377Z,5040.00
2023-06-19T13:18:57.333Z,5116.00
2023-06-19T13:19:57.308Z,5000.00
2023-06-19T13:20:57.297Z,4876.00
2023-06-19T13:21:57.380Z,4972.00
2023-06-19T13:22:57.290Z,5096.00
2023-06-19T13:23:57.291Z,4996.00
2023-06-19T13:24:57.261Z,5068.00
2023-06-19T13:25:57.250Z,4476.00
2023-06-19T13:27:02.284Z,4644.00
2023-06-19T13:27:57.298Z,4872.00
2023-06-19T13:28:57.240Z,5360.00
2023-06-19T13:29:57.227Z,6648.00
2023-06-19T13:30:57.192Z,7068.00
2023-06-19T13:31:57.191Z,7348.00
2023-06-19T13:32:57.213Z,7056.00
2023-06-19T13:33:57.204Z,6616.00
2023-06-19T13:34:57.197Z,6092.00
2023-06-19T13:35:57.152Z,5468.00
2023-06-19T13:36:57.136Z,4984.00
2023-06-19T13:37:57.129Z,4924.00
2023-06-19T13:38:57.114Z,4716.00
2023-06-19T13:40:02.112Z,4584.00
2023-06-19T13:40:57.112Z,4600.00
2023-06-19T13:41:57.220Z,4764.00
2023-06-19T13:42:57.062Z,5064.00
2023-06-19T13:43:57.053Z,5336.00
2023-06-19T13:44:57.052Z,5492.00
2023-06-19T13:45:57.086Z,5296.00
2023-06-19T13:46:57.076Z,5020.00
2023-06-19T13:47:57.073Z,4840.00
2023-06-19T13:48:57.006Z,4684.00
2023-06-19T13:49:56.986Z,4384.00
2023-06-19T13:50:57.009Z,4072.00
2023-06-19T13:51:56.972Z,3816.00
2023-06-19T13:53:01.976Z,3588.00
2023-06-19T13:53:57.063Z,3372.00
2023-06-19T13:54:56.958Z,3120.00
2023-06-19T13:55:56.935Z,2980.00
2023-06-19T13:56:56.912Z,2984.00
2023-06-19T13:57:56.903Z,3116.00
2023-06-19T13:58:56.888Z,3348.00
2023-06-19T13:59:56.913Z,3456.00
2023-06-19T14:00:57.050Z,3456.00
2023-06-19T14:01:56.909Z,3504.00
2023-06-19T14:02:56.923Z,3512.00
2023-06-19T14:03:56.831Z,3768.00
2023-06-19T14:04:56.839Z,4048.00
2023-06-19T14:06:01.834Z,4048.00
2023-06-19T14:06:56.874Z,3872.00
2023-06-19T14:07:56.910Z,4176.00
2023-06-19T14:08:56.791Z,3528.00
2023-06-19T14:09:56.775Z,3548.00
2023-06-19T14:10:56.768Z,3696.00
2023-06-19T14:11:56.761Z,3724.00
2023-06-19T14:12:56.736Z,3636.00
2023-06-19T14:13:56.747Z,3532.00
2023-06-19T14:14:56.749Z,3688.00
2023-06-19T14:15:56.720Z,3556.00
2023-06-19T14:16:56.708Z,3476.00
2023-06-19T14:17:56.775Z,3520.00
2023-06-19T14:19:01.710Z,3588.00
2023-06-19T14:19:56.714Z,3496.00
2023-06-19T14:20:56.743Z,3196.00
2023-06-19T14:21:56.641Z,3076.00
2023-06-19T14:22:56.635Z,2856.00
2023-06-19T14:23:56.745Z,2680.00
2023-06-19T14:24:56.612Z,2600.00
2023-06-19T14:25:56.616Z,2576.00
2023-06-19T14:26:56.680Z,2708.00
2023-06-19T14:27:56.584Z,2900.00
2023-06-19T14:28:56.575Z,3080.00
2023-06-19T14:29:56.556Z,3172.00
2023-06-19T14:30:56.547Z,3244.00
2023-06-19T14:32:01.555Z,3284.00
2023-06-19T14:32:56.692Z,3380.00
2023-06-19T14:33:56.557Z,3508.00
2023-06-19T14:34:56.509Z,3656.00
2023-06-19T14:35:56.497Z,3796.00
2023-06-19T14:36:56.484Z,3932.00
2023-06-19T14:37:56.511Z,4224.00
2023-06-19T14:38:56.546Z,4324.00
2023-06-19T14:39:56.446Z,4184.00
2023-06-19T14:40:56.441Z,4324.00
2023-06-19T14:41:56.427Z,4240.00
2023-06-19T14:42:56.423Z,4260.00
2023-06-19T14:43:56.415Z,4312.00
2023-06-19T14:45:01.507Z,4716.00
2023-06-19T14:45:56.386Z,4576.00
2023-06-19T14:46:56.397Z,4680.00
2023-06-19T14:47:56.390Z,4800.00
2023-06-19T14:48:56.351Z,4528.00
2023-06-19T14:49:56.380Z,3808.00
2023-06-19T14:50:56.409Z,3236.00
2023-06-19T14:51:56.332Z,3020.00
2023-06-19T14:52:56.308Z,3004.00
2023-06-19T14:53:56.297Z,3136.00
2023-06-19T14:54:59.268Z,3204.00
2023-06-19T14:56:01.341Z,3356.00
2023-06-19T14:56:56.382Z,3808.00
2023-06-19T14:57:56.278Z,3624.00
2023-06-19T14:58:56.241Z,3564.00
2023-06-19T14:59:56.243Z,3468.00
2023-06-19T15:00:56.263Z,3020.00
2023-06-19T15:01:56.278Z,2648.00
2023-06-19T15:02:56.359Z,2448.00
2023-06-19T15:03:56.309Z,2500.00
2023-06-19T15:05:05.663Z,2940.00
2023-06-19T15:05:57.221Z,3408.00
2023-06-19T15:06:56.159Z,3212.00
2023-06-19T15:07:56.177Z,2824.00
2023-06-19T15:09:03.132Z,2772.00
2023-06-19T15:09:56.125Z,2756.00
2023-06-19T15:10:56.125Z,2808.00
2023-06-19T15:11:56.120Z,3044.00
2023-06-19T15:12:56.114Z,3484.00
2023-06-19T15:13:56.106Z,3848.00
2023-06-19T15:14:56.089Z,4192.00
2023-06-19T15:15:56.070Z,4140.00
2023-06-19T15:16:56.060Z,4220.00
2023-06-19T15:17:56.126Z,3904.00
2023-06-19T15:18:56.067Z,3464.00
2023-06-19T15:20:01.106Z,3340.00
2023-06-19T15:20:56.036Z,3184.00
2023-06-19T15:21:56.014Z,3092.00
2023-06-19T15:22:55.989Z,3208.00
2023-06-19T15:23:56.025Z,3236.00
2023-06-19T15:24:55.978Z,3352.00
2023-06-19T15:25:56.054Z,3228.00
2023-06-19T15:26:55.940Z,3168.00
2023-06-19T15:27:55.933Z,3228.00
2023-06-19T15:28:55.925Z,3196.00
2023-06-19T15:29:55.924Z,3168.00
2023-06-19T15:31:00.921Z,3024.00
2023-06-19T15:31:55.942Z,2816.00
2023-06-19T15:32:55.924Z,2688.00
2023-06-19T15:33:55.893Z,2640.00
2023-06-19T15:34:55.870Z,2632.00
2023-06-19T15:35:55.851Z,2728.00
2023-06-19T15:36:55.832Z,2864.00
2023-06-19T15:37:55.926Z,2964.00
2023-06-19T15:38:55.840Z,2916.00
2023-06-19T15:39:55.966Z,2872.00
2023-06-19T15:40:55.792Z,2840.00
2023-06-19T15:42:00.806Z,2796.00
2023-06-19T15:42:55.779Z,2820.00
2023-06-19T15:43:55.779Z,2924.00
2023-06-19T15:44:55.743Z,3084.00
2023-06-19T15:45:55.857Z,3272.00
2023-06-19T15:46:55.729Z,3492.00
2023-06-19T15:47:55.772Z,3708.00
2023-06-19T15:48:55.711Z,3824.00
2023-06-19T15:49:55.696Z,3832.00
2023-06-19T15:50:55.685Z,3588.00
2023-06-19T15:51:55.703Z,3516.00
2023-06-19T15:53:00.780Z,3512.00
2023-06-19T15:53:55.668Z,3456.00
2023-06-19T15:54:55.642Z,3528.00
2023-06-19T15:55:55.632Z,3516.00
2023-06-19T15:56:58.041Z,3308.00
2023-06-19T15:57:55.630Z,3232.00
2023-06-19T15:58:55.628Z,3316.00
2023-06-19T15:59:55.588Z,3412.00
2023-06-19T16:00:55.584Z,3540.00
2023-06-19T16:01:55.718Z,3592.00
2023-06-19T16:02:55.639Z,3576.00
2023-06-19T16:04:00.662Z,3460.00
2023-06-19T16:04:55.582Z,3388.00
2023-06-19T16:06:06.006Z,3352.00
2023-06-19T16:06:56.518Z,3324.00
2023-06-19T16:07:55.525Z,3236.00
2023-06-19T16:08:55.508Z,3172.00
2023-06-19T16:09:56.123Z,3116.00
2023-06-19T16:10:55.526Z,3052.00
2023-06-19T16:11:55.462Z,2916.00
2023-06-19T16:12:55.449Z,2716.00
2023-06-19T16:13:55.433Z,2560.00
2023-06-19T16:15:00.448Z,2468.00
2023-06-19T16:15:55.439Z,2428.00
2023-06-19T16:16:55.497Z,2432.00
2023-06-19T16:17:55.426Z,2420.00
2023-06-19T16:18:55.378Z,2500.00
2023-06-19T16:19:55.370Z,2468.00
2023-06-19T16:20:55.354Z,2464.00
2023-06-19T16:21:55.355Z,2412.00
2023-06-19T16:22:55.353Z,2676.00
2023-06-19T16:23:55.412Z,2472.00
2023-06-19T16:24:55.345Z,2460.00
2023-06-19T16:26:00.336Z,2684.00
2023-06-19T16:26:55.328Z,3240.00
2023-06-19T16:27:55.288Z,3524.00
2023-06-19T16:28:55.272Z,3428.00
2023-06-19T16:29:55.297Z,3392.00
2023-06-19T16:30:55.309Z,3424.00
2023-06-19T16:32:08.131Z,3408.00
2023-06-19T16:32:55.287Z,3184.00
2023-06-19T16:33:55.218Z,2964.00
2023-06-19T16:34:55.206Z,2704.00
2023-06-19T16:35:55.255Z,2528.00
2023-06-19T16:37:00.214Z,2316.00
2023-06-19T16:37:55.221Z,2036.00
2023-06-19T16:38:55.167Z,1736.00
2023-06-19T16:39:55.193Z,1432.00
2023-06-19T16:40:55.189Z,1296.00
2023-06-19T16:41:55.192Z,1208.00
2023-06-19T16:42:55.200Z,1180.00
2023-06-19T16:43:55.112Z,1164.00
2023-06-19T16:44:55.109Z,1160.00
2023-06-19T16:45:55.098Z,1140.00
2023-06-19T16:46:55.150Z,1116.00
2023-06-19T16:48:00.177Z,1120.00
2023-06-19T16:48:55.115Z,1132.00
2023-06-19T16:49:55.056Z,1164.00
2023-06-19T16:50:55.042Z,1212.00
2023-06-19T16:51:55.032Z,1292.00
2023-06-19T16:52:55.024Z,1384.00
2023-06-19T16:53:55.008Z,1400.00
2023-06-19T16:54:55.059Z,1376.00
2023-06-19T16:55:55.009Z,1324.00
2023-06-19T16:56:55.009Z,1320.00
2023-06-19T16:57:54.966Z,1352.00
2023-06-19T16:58:59.983Z,1312.00
2023-06-19T16:59:54.962Z,1252.00
2023-06-19T17:00:55.170Z,1172.00
2023-06-19T17:01:54.990Z,1160.00
2023-06-19T17:02:55.015Z,1124.00